Time;durP1;ratioP1;P1;durP2;ratioP2;P2;SDS_P1;SDS_P2;PMS_P1;PMS_P2;Temp;Humidity;BMP_temperature;BMP_pressure;BME280_temperature;BME280_humidity;BME280_pressure;Samples;Min_cycle;Max_cycle;Signal;HPM_P1;HPM_P2
2020/12/18 00:00:34;;;;;;;14.57;8.57;;;3.80;99.90;;;;;;5096036;28;20524;-81
2020/12/18 00:03:00;;;;;;;16.17;10.13;;;3.90;99.90;;;;;;5096280;28;20024;-81
2020/12/18 00:05:26;;;;;;;13.32;8.43;;;3.90;99.90;;;;;;5077776;28;20475;-81
2020/12/18 00:07:51;;;;;;;27.70;9.85;;;4.10;99.90;;;;;;5095912;28;20463;-81
2020/12/18 00:10:17;;;;;;;33.92;8.65;;;4.10;99.90;;;;;;5077685;28;20020;-81
2020/12/18 00:12:43;;;;;;;53.88;9.95;;;4.00;99.90;;;;;;5095779;28;20024;-81
2020/12/18 00:15:08;;;;;;;19.48;9.65;;;4.00;99.90;;;;;;5077633;28;20023;-81
2020/12/18 00:17:34;;;;;;;16.15;8.50;;;4.00;99.90;;;;;;5095740;28;20481;-81
2020/12/18 00:20:02;;;;;;;13.48;8.23;;;4.00;99.90;;;;;;5095437;28;20031;-81
2020/12/18 00:22:28;;;;;;;11.88;7.93;;;4.00;99.90;;;;;;5077377;28;20024;-81
2020/12/18 00:24:54;;;;;;;14.20;8.27;;;4.00;99.90;;;;;;5095914;28;20030;-81
2020/12/18 00:27:19;;;;;;;12.20;7.93;;;3.80;99.90;;;;;;5095551;28;20395;-81
2020/12/18 00:29:45;;;;;;;14.48;8.73;;;3.90;99.90;;;;;;5095715;28;20031;-81
2020/12/18 00:32:11;;;;;;;16.13;7.70;;;3.90;99.90;;;;;;5095731;28;20020;-81
2020/12/18 00:34:37;;;;;;;12.98;7.47;;;4.00;99.90;;;;;;5077285;28;20027;-81
2020/12/18 00:37:02;;;;;;;10.25;7.30;;;3.90;99.90;;;;;;5095361;28;20070;-81
2020/12/18 00:39:28;;;;;;;18.70;7.65;;;4.00;99.90;;;;;;5095589;28;20490;-81
2020/12/18 00:41:54;;;;;;;29.50;7.95;;;4.00;99.90;;;;;;5095324;28;20028;-81
2020/12/18 00:44:20;;;;;;;28.05;8.55;;;4.20;99.90;;;;;;5095240;28;20024;-81
2020/12/18 00:46:46;;;;;;;12.10;7.47;;;4.20;99.90;;;;;;5095137;28;20442;-81
2020/12/18 00:49:12;;;;;;;11.32;7.93;;;4.20;99.90;;;;;;5095036;28;20055;-81
2020/12/18 00:51:38;;;;;;;11.90;7.72;;;4.00;99.90;;;;;;5076904;28;20072;-81
2020/12/18 00:54:04;;;;;;;11.95;7.35;;;3.90;99.90;;;;;;5095050;28;20482;-81
2020/12/18 00:56:29;;;;;;;11.57;7.10;;;4.10;99.90;;;;;;5076838;28;20055;-81
2020/12/18 00:58:55;;;;;;;10.90;7.18;;;4.10;99.90;;;;;;5095277;28;20024;-81
2020/12/18 01:01:21;;;;;;;8.88;6.78;;;3.90;99.90;;;;;;5076728;28;20123;-81
2020/12/18 01:03:46;;;;;;;10.82;7.28;;;3.80;99.90;;;;;;5094851;28;20035;-81
2020/12/18 01:06:13;;;;;;;10.80;6.93;;;3.80;99.90;;;;;;5076595;28;20039;-81
2020/12/18 01:08:39;;;;;;;9.70;6.05;;;3.90;99.90;;;;;;5094978;28;20082;-81
2020/12/18 01:11:05;;;;;;;10.80;7.38;;;4.10;99.90;;;;;;5095068;28;20025;-81
2020/12/18 01:13:31;;;;;;;8.00;6.35;;;4.00;99.90;;;;;;5095037;28;20596;-81
2020/12/18 01:15:57;;;;;;;11.82;7.03;;;3.90;99.90;;;;;;5094490;28;20034;-81
2020/12/18 01:18:24;;;;;;;8.90;6.35;;;3.90;99.90;;;;;;5094553;28;20041;-81
2020/12/18 01:20:51;;;;;;;10.00;6.35;;;4.00;99.90;;;;;;5076175;28;20402;-81
2020/12/18 01:23:17;;;;;;;11.20;6.43;;;3.90;99.90;;;;;;5076352;28;20028;-81
2020/12/18 01:25:44;;;;;;;9.02;6.30;;;4.00;99.90;;;;;;5094454;28;20032;-81
2020/12/18 01:28:10;;;;;;;12.70;6.05;;;4.10;99.90;;;;;;5094342;28;20024;-81
2020/12/18 01:30:35;;;;;;;12.43;6.38;;;4.10;99.90;;;;;;5094376;28;20066;-81
2020/12/18 01:33:02;;;;;;;14.25;6.32;;;4.20;99.90;;;;;;5075344;28;20463;-81
2020/12/18 01:35:27;;;;;;;12.40;6.18;;;4.10;99.90;;;;;;5076141;28;20024;-81
2020/12/18 01:37:53;;;;;;;10.18;6.78;;;4.00;99.90;;;;;;5076147;28;20498;-81
2020/12/18 01:40:19;;;;;;;11.38;6.28;;;3.90;99.90;;;;;;5094472;28;20024;-81
2020/12/18 01:42:45;;;;;;;10.98;6.43;;;3.80;99.90;;;;;;5075953;28;20039;-81
2020/12/18 01:45:10;;;;;;;11.30;5.68;;;3.80;99.90;;;;;;5094145;28;20103;-81
2020/12/18 01:47:37;;;;;;;9.63;5.32;;;3.80;99.90;;;;;;5093972;28;20031;-81
2020/12/18 01:50:04;;;;;;;10.82;5.85;;;3.70;99.90;;;;;;5094043;28;20036;-81
2020/12/18 01:52:31;;;;;;;7.00;5.28;;;3.90;99.90;;;;;;5093974;28;20077;-81
2020/12/18 01:55:01;;;;;;;8.40;4.93;;;3.90;99.90;;;;;;5093977;28;20459;-81
2020/12/18 01:57:27;;;;;;;6.80;5.32;;;3.80;99.90;;;;;;5094179;28;20073;-81
2020/12/18 01:59:53;;;;;;;7.43;4.82;;;3.80;99.90;;;;;;5093870;28;20467;-81
2020/12/18 02:02:19;;;;;;;7.63;4.88;;;3.80;99.90;;;;;;5075707;28;20073;-81
2020/12/18 02:04:47;;;;;;;8.13;5.00;;;3.70;99.90;;;;;;5093784;28;20043;-81
2020/12/18 02:07:13;;;;;;;7.60;5.03;;;3.70;99.90;;;;;;5075683;28;20405;-81
2020/12/18 02:09:40;;;;;;;6.97;5.03;;;3.60;99.90;;;;;;5093692;28;20048;-81
2020/12/18 02:12:06;;;;;;;9.05;5.82;;;3.70;99.90;;;;;;5075556;28;20076;-81
2020/12/18 02:14:32;;;;;;;8.55;5.85;;;3.60;99.90;;;;;;5093692;28;20467;-81
2020/12/18 02:16:59;;;;;;;9.55;5.35;;;3.80;99.90;;;;;;5093603;28;20023;-81
2020/12/18 02:19:30;;;;;;;10.18;5.50;;;3.70;99.90;;;;;;5075501;28;20119;-81
2020/12/18 02:21:55;;;;;;;11.77;5.63;;;3.90;99.90;;;;;;5093443;28;20079;-81
2020/12/18 02:24:33;;;;;;;8.40;5.80;;;3.80;99.90;;;;;;5093882;28;20461;-81
2020/12/18 02:26:58;;;;;;;8.50;5.53;;;3.60;99.90;;;;;;5076088;28;20477;-81
2020/12/18 02:29:24;;;;;;;6.13;5.03;;;3.50;99.90;;;;;;5093514;28;20028;-81
2020/12/18 02:31:50;;;;;;;6.45;5.13;;;3.60;99.90;;;;;;5093519;28;20046;-81
2020/12/18 02:34:26;;;;;;;7.22;4.82;;;3.50;99.90;;;;;;5093504;28;20020;-81
2020/12/18 02:36:52;;;;;;;6.07;4.40;;;3.60;99.90;;;;;;5075404;28;20024;-81
2020/12/18 02:39:18;;;;;;;7.13;4.75;;;3.60;99.90;;;;;;5075332;28;20020;-81
2020/12/18 02:41:43;;;;;;;7.43;4.93;;;3.40;99.90;;;;;;5075270;28;20028;-81
2020/12/18 02:44:10;;;;;;;5.85;4.38;;;3.40;99.90;;;;;;5095512;28;20379;-81
2020/12/18 02:46:35;;;;;;;6.78;4.63;;;3.30;99.90;;;;;;5079229;28;20032;-81
2020/12/18 02:49:01;;;;;;;6.05;4.82;;;3.30;99.90;;;;;;5097403;28;20035;-81
2020/12/18 02:51:27;;;;;;;6.00;4.55;;;3.40;99.90;;;;;;5079230;28;20028;-81
2020/12/18 02:53:53;;;;;;;6.30;4.75;;;3.50;99.90;;;;;;5097933;28;20031;-81
2020/12/18 02:56:28;;;;;;;7.82;5.30;;;3.60;99.90;;;;;;5097299;28;20024;-81
2020/12/18 02:58:54;;;;;;;8.50;5.10;;;3.70;99.90;;;;;;5079106;28;20028;-81
2020/12/18 03:01:20;;;;;;;6.80;5.07;;;3.80;99.90;;;;;;5097534;28;20101;-81
2020/12/18 03:03:46;;;;;;;5.40;4.50;;;3.80;99.90;;;;;;5097490;28;20461;-81
2020/12/18 03:06:12;;;;;;;15.95;6.88;;;3.90;99.90;;;;;;5097177;28;20063;-81
2020/12/18 03:08:38;;;;;;;22.73;7.63;;;3.90;99.90;;;;;;5097318;28;20021;-80
2020/12/18 03:11:04;;;;;;;7.65;4.35;;;3.90;99.90;;;;;;5097018;28;20023;-80
2020/12/18 03:13:30;;;;;;;6.43;4.40;;;4.00;99.90;;;;;;5078801;28;20486;-80
2020/12/18 03:15:56;;;;;;;8.35;4.35;;;3.80;99.90;;;;;;5078666;28;20024;-81
2020/12/18 03:18:22;;;;;;;9.55;4.03;;;3.70;99.90;;;;;;5096904;28;20386;-81
2020/12/18 03:20:48;;;;;;;6.32;3.90;;;3.80;99.90;;;;;;5096693;28;20052;-81
2020/12/18 03:23:14;;;;;;;5.65;4.05;;;4.00;99.90;;;;;;5078597;28;20031;-81
2020/12/18 03:25:39;;;;;;;6.80;4.03;;;3.80;99.90;;;;;;5096742;28;20441;-81
2020/12/18 03:28:05;;;;;;;5.85;4.25;;;3.70;99.90;;;;;;5078477;28;20028;-81
2020/12/18 03:30:31;;;;;;;6.18;4.57;;;3.70;99.90;;;;;;5096660;28;20053;-81
2020/12/18 03:32:57;;;;;;;5.05;4.10;;;3.90;99.90;;;;;;5078546;28;20021;-81
2020/12/18 03:35:23;;;;;;;5.72;4.10;;;4.00;99.90;;;;;;5097200;28;20484;-81
2020/12/18 03:37:49;;;;;;;6.05;4.00;;;4.00;99.90;;;;;;5078391;28;20016;-81
2020/12/18 03:40:18;;;;;;;4.93;3.55;;;4.00;99.90;;;;;;5078370;28;20035;-81
2020/12/18 03:42:44;;;;;;;4.60;3.70;;;3.80;99.90;;;;;;5078264;28;20020;-81
2020/12/18 03:45:09;;;;;;;6.95;4.10;;;4.10;99.90;;;;;;5096464;28;20019;-81
2020/12/18 03:47:35;;;;;;;4.25;3.58;;;3.90;99.90;;;;;;5096142;28;20028;-81
2020/12/18 03:50:01;;;;;;;5.07;3.67;;;3.80;99.90;;;;;;5096323;28;20024;-81
2020/12/18 03:52:29;;;;;;;4.63;3.72;;;3.90;99.90;;;;;;5096246;28;20510;-81
2020/12/18 03:54:55;;;;;;;7.00;3.85;;;4.00;99.90;;;;;;5077455;28;20511;-81
2020/12/18 03:57:21;;;;;;;5.45;3.97;;;3.90;99.90;;;;;;5096190;28;20016;-81
2020/12/18 03:59:47;;;;;;;6.07;4.30;;;3.90;99.90;;;;;;5077983;28;20494;-81
2020/12/18 04:02:12;;;;;;;4.00;3.60;;;4.00;99.90;;;;;;5096346;28;20055;-81
2020/12/18 04:04:38;;;;;;;5.68;4.18;;;4.20;99.90;;;;;;5077945;28;20027;-81
2020/12/18 04:07:04;;;;;;;5.32;4.00;;;4.10;99.90;;;;;;5096005;28;20020;-81
2020/12/18 04:09:30;;;;;;;6.93;3.90;;;4.10;99.90;;;;;;5077640;28;20081;-81
2020/12/18 04:11:55;;;;;;;5.05;4.18;;;4.20;99.90;;;;;;5077757;28;20107;-81
2020/12/18 04:14:21;;;;;;;5.50;4.18;;;4.00;99.90;;;;;;5096113;28;20043;-81
2020/12/18 04:16:47;;;;;;;6.70;4.60;;;3.90;99.90;;;;;;5095698;28;20024;-81
2020/12/18 04:19:12;;;;;;;5.88;4.32;;;3.90;99.90;;;;;;5077638;28;20118;-81
2020/12/18 04:21:38;;;;;;;5.95;4.15;;;3.90;99.90;;;;;;5073910;28;20488;-81
2020/12/18 04:24:04;;;;;;;8.05;4.05;;;3.90;99.90;;;;;;5076262;28;20107;-81
2020/12/18 04:26:30;;;;;;;7.03;3.75;;;4.10;99.90;;;;;;5075683;28;20043;-81
2020/12/18 04:28:56;;;;;;;8.43;4.63;;;4.10;99.90;;;;;;5074047;28;20063;-81
2020/12/18 04:31:22;;;;;;;5.03;3.92;;;4.10;99.90;;;;;;5075538;28;20048;-81
2020/12/18 04:33:47;;;;;;;9.70;4.53;;;4.00;99.90;;;;;;5075278;28;20029;-81
2020/12/18 04:36:14;;;;;;;6.55;4.40;;;4.00;99.90;;;;;;5075165;28;20028;-81
2020/12/18 04:38:40;;;;;;;5.80;4.05;;;4.00;99.90;;;;;;5075116;28;20028;-81
2020/12/18 04:41:06;;;;;;;5.95;4.35;;;4.10;99.90;;;;;;5075094;28;20524;-81
2020/12/18 04:43:32;;;;;;;5.63;4.00;;;4.00;99.90;;;;;;5073803;28;20085;-81
2020/12/18 04:45:59;;;;;;;9.90;4.13;;;4.00;99.90;;;;;;5073740;28;20116;-82
2020/12/18 04:48:26;;;;;;;7.72;4.18;;;4.00;99.90;;;;;;5073597;28;20029;-81
2020/12/18 04:50:55;;;;;;;5.15;3.95;;;4.00;99.90;;;;;;5074958;28;20016;-81
2020/12/18 04:53:29;;;;;;;9.00;4.30;;;3.90;99.90;;;;;;5073647;28;20020;-81
2020/12/18 04:55:56;;;;;;;9.60;4.18;;;4.10;99.90;;;;;;5074848;28;20024;-81
2020/12/18 04:58:25;;;;;;;5.18;3.97;;;4.20;99.90;;;;;;5074775;28;20062;-81
2020/12/18 05:00:56;;;;;;;6.35;3.65;;;4.40;99.90;;;;;;5073468;28;20024;-81
2020/12/18 05:03:22;;;;;;;6.10;3.83;;;4.50;99.90;;;;;;5073376;28;20021;-81
2020/12/18 05:05:48;;;;;;;4.88;3.90;;;4.50;99.90;;;;;;5074882;28;20043;-81
2020/12/18 05:08:14;;;;;;;6.22;3.95;;;4.40;99.90;;;;;;5073112;28;20056;-81
2020/12/18 05:10:40;;;;;;;6.47;3.80;;;4.50;99.90;;;;;;5073186;28;20020;-81
2020/12/18 05:13:05;;;;;;;5.38;3.90;;;4.40;99.90;;;;;;5073200;28;20111;-81
2020/12/18 05:15:33;;;;;;;5.75;3.83;;;4.20;99.90;;;;;;5074320;28;20024;-81
2020/12/18 05:17:59;;;;;;;4.82;3.85;;;4.00;99.90;;;;;;5073114;28;20486;-81
2020/12/18 05:20:26;;;;;;;6.00;4.28;;;4.00;99.90;;;;;;5076009;28;20028;-81
2020/12/18 05:22:52;;;;;;;7.22;4.15;;;4.00;99.90;;;;;;5076435;28;20024;-81
2020/12/18 05:25:19;;;;;;;5.50;3.88;;;4.00;99.90;;;;;;5094489;28;20360;-81
2020/12/18 05:27:44;;;;;;;5.95;3.95;;;4.00;99.90;;;;;;5094620;28;20032;-82
2020/12/18 05:30:10;;;;;;;5.82;3.90;;;4.00;99.90;;;;;;5076219;28;20467;-81
2020/12/18 05:32:37;;;;;;;4.82;3.10;;;4.10;99.90;;;;;;5076208;28;20042;-81
2020/12/18 05:35:04;;;;;;;5.22;3.58;;;4.10;99.90;;;;;;5076140;28;20024;-81
2020/12/18 05:37:39;;;;;;;5.25;3.30;;;4.20;99.90;;;;;;5094263;28;20020;-81
2020/12/18 05:40:06;;;;;;;5.00;3.13;;;4.30;99.90;;;;;;5094148;28;20039;-81
2020/12/18 05:42:46;;;;;;;4.65;3.83;;;4.40;99.90;;;;;;5094116;28;20387;-81
2020/12/18 05:45:19;;;;;;;3.92;3.22;;;4.50;99.90;;;;;;5075924;28;20032;-81
2020/12/18 05:48:02;;;;;;;5.15;3.90;;;4.50;99.90;;;;;;5094316;28;20028;-82
2020/12/18 05:50:36;;;;;;;6.13;4.00;;;4.20;99.90;;;;;;5094303;28;20113;-81
2020/12/18 05:53:06;;;;;;;5.30;4.32;;;4.20;99.90;;;;;;5075953;28;20027;-81
2020/12/18 05:55:39;;;;;;;8.35;5.05;;;4.30;99.90;;;;;;5094294;28;20490;-81
2020/12/18 05:58:05;;;;;;;8.90;4.68;;;4.10;99.90;;;;;;5075804;28;20027;-81
2020/12/18 06:00:37;;;;;;;6.55;4.55;;;4.20;99.90;;;;;;5093885;28;20078;-81
2020/12/18 06:03:08;;;;;;;9.73;3.85;;;4.20;99.90;;;;;;5093934;28;20107;-81
2020/12/18 06:05:37;;;;;;;6.78;4.30;;;4.20;99.90;;;;;;5075748;28;20498;-81
2020/12/18 06:08:15;;;;;;;6.53;4.47;;;4.30;99.90;;;;;;5093776;28;20016;-81
2020/12/18 06:10:41;;;;;;;7.18;3.88;;;4.30;99.90;;;;;;5075687;28;20024;-81
2020/12/18 06:13:06;;;;;;;7.25;4.25;;;4.40;99.90;;;;;;5075647;28;20065;-81
2020/12/18 06:15:34;;;;;;;5.28;4.05;;;4.30;99.90;;;;;;5075535;28;20024;-82
2020/12/18 06:18:04;;;;;;;7.22;4.35;;;4.30;99.90;;;;;;5075254;28;20574;-82
2020/12/18 06:20:35;;;;;;;6.78;4.50;;;4.10;99.90;;;;;;5075272;28;20024;-81
2020/12/18 06:23:04;;;;;;;9.98;3.92;;;4.20;99.90;;;;;;5093959;28;20020;-81
2020/12/18 06:25:31;;;;;;;6.00;4.03;;;4.20;99.90;;;;;;5075483;28;20146;-82
2020/12/18 06:27:59;;;;;;;5.53;4.07;;;4.20;99.90;;;;;;5093434;28;20068;-82
2020/12/18 06:30:26;;;;;;;5.95;4.13;;;4.10;99.90;;;;;;5075509;28;20217;-82
2020/12/18 06:32:52;;;;;;;10.85;5.88;;;4.30;99.90;;;;;;5093842;28;20077;-82
2020/12/18 06:35:36;;;;;;;699.20;149.82;;;4.30;99.90;;;;;;5075366;28;20523;-81
2020/12/18 06:38:15;;;;;;;26.65;8.43;;;4.20;99.90;;;;;;5075360;28;20479;-81
2020/12/18 06:40:42;;;;;;;24.23;7.60;;;4.40;99.90;;;;;;5093449;28;20020;-81
2020/12/18 06:43:08;;;;;;;10.80;7.10;;;4.40;99.90;;;;;;5075518;28;20029;-81
2020/12/18 06:45:34;;;;;;;11.25;6.55;;;4.30;99.90;;;;;;5093620;28;20020;-81
2020/12/18 06:48:00;;;;;;;13.65;6.15;;;4.20;99.90;;;;;;5093574;28;20028;-82
2020/12/18 06:50:34;;;;;;;20.20;6.88;;;4.30;99.90;;;;;;5093297;28;20024;-82
2020/12/18 06:53:08;;;;;;;15.48;6.18;;;4.40;99.90;;;;;;5075289;28;20035;-81
2020/12/18 06:55:36;;;;;;;11.93;5.70;;;4.40;99.90;;;;;;5093666;28;20020;-81
2020/12/18 06:58:12;;;;;;;12.90;5.72;;;4.30;99.90;;;;;;5075153;28;20028;-81
2020/12/18 07:00:44;;;;;;;13.73;6.00;;;4.30;99.90;;;;;;5093197;28;20360;-82
2020/12/18 07:03:11;;;;;;;10.85;4.95;;;4.30;99.90;;;;;;5093243;28;20163;-82
2020/12/18 07:05:43;;;;;;;11.38;5.53;;;4.20;99.90;;;;;;5093122;28;20463;-81
2020/12/18 07:08:13;;;;;;;11.02;6.07;;;4.10;99.90;;;;;;5074945;28;20031;-81
2020/12/18 07:10:42;;;;;;;9.43;5.63;;;3.90;99.90;;;;;;5075003;28;20029;-81
2020/12/18 07:13:18;;;;;;;11.40;5.40;;;3.80;99.90;;;;;;5093090;28;20376;-82
2020/12/18 07:15:48;;;;;;;11.43;5.68;;;3.80;99.90;;;;;;5093094;28;20023;-81
2020/12/18 07:18:28;;;;;;;10.07;5.53;;;3.70;99.90;;;;;;5093394;28;20053;-81
2020/12/18 07:20:57;;;;;;;9.38;4.90;;;3.90;99.90;;;;;;5092860;28;20040;-81
2020/12/18 07:23:24;;;;;;;8.73;5.15;;;4.00;99.90;;;;;;5093391;28;20483;-82
2020/12/18 07:25:50;;;;;;;10.57;5.20;;;4.10;99.90;;;;;;5074926;28;20089;-81
2020/12/18 07:28:17;;;;;;;10.13;5.00;;;4.20;99.90;;;;;;5092933;28;20032;-81
2020/12/18 07:30:45;;;;;;;12.75;4.95;;;4.20;99.90;;;;;;5075750;28;20020;-81
2020/12/18 07:33:13;;;;;;;11.43;5.53;;;4.30;99.90;;;;;;5096660;28;20375;-81
2020/12/18 07:35:47;;;;;;;10.88;4.90;;;4.20;99.90;;;;;;5078411;28;20100;-81
2020/12/18 07:38:14;;;;;;;13.68;5.25;;;4.30;99.90;;;;;;5096565;28;20073;-81
2020/12/18 07:40:40;;;;;;;6.95;4.63;;;4.30;99.90;;;;;;5078326;28;20119;-81
2020/12/18 07:43:11;;;;;;;10.90;5.18;;;4.30;99.90;;;;;;5078226;28;20383;-81
2020/12/18 07:45:41;;;;;;;9.52;4.85;;;4.30;99.90;;;;;;5096382;28;20072;-81
2020/12/18 07:48:11;;;;;;;6.53;4.28;;;4.30;99.90;;;;;;5078139;28;20024;-81
2020/12/18 07:50:37;;;;;;;8.05;4.80;;;4.20;99.90;;;;;;5096273;28;20054;-82
2020/12/18 07:53:08;;;;;;;7.68;4.10;;;4.20;99.90;;;;;;5078023;28;20115;-82
2020/12/18 07:55:34;;;;;;;11.98;4.88;;;4.10;99.90;;;;;;5096205;28;20040;-82
2020/12/18 07:58:00;;;;;;;6.68;4.47;;;4.30;99.90;;;;;;5077487;28;20510;-81
2020/12/18 08:00:26;;;;;;;8.10;4.70;;;4.30;99.90;;;;;;5095879;28;20080;-81
2020/12/18 08:02:53;;;;;;;9.55;4.90;;;4.40;99.90;;;;;;5096053;28;20099;-81
2020/12/18 08:05:20;;;;;;;6.63;4.20;;;4.40;99.90;;;;;;5095981;28;20066;-81
2020/12/18 08:07:47;;;;;;;7.30;4.72;;;4.30;99.90;;;;;;5077658;28;20032;-81
2020/12/18 08:10:14;;;;;;;9.18;4.75;;;4.20;99.90;;;;;;5095900;28;20020;-82
2020/12/18 08:12:40;;;;;;;7.57;5.03;;;4.30;99.90;;;;;;5096121;28;20341;-82
2020/12/18 08:15:14;;;;;;;8.63;5.18;;;4.30;99.90;;;;;;5095869;28;20077;-82
2020/12/18 08:17:41;;;;;;;4.57;3.55;;;4.60;99.90;;;;;;5095724;28;20039;-82
2020/12/18 08:20:08;;;;;;;8.73;5.35;;;5.00;99.90;;;;;;5095703;28;20505;-82
2020/12/18 08:22:39;;;;;;;8.55;5.13;;;5.30;99.90;;;;;;5095494;28;20525;-81
2020/12/18 08:25:07;;;;;;;6.63;4.47;;;5.50;99.90;;;;;;5077497;28;20042;-82
2020/12/18 08:27:50;;;;;;;6.45;4.68;;;5.80;99.90;;;;;;5095607;28;20379;-82
2020/12/18 08:30:20;;;;;;;6.75;4.07;;;5.90;99.90;;;;;;5095615;28;20020;-82
2020/12/18 08:32:53;;;;;;;7.18;4.10;;;6.00;99.90;;;;;;5095489;28;20103;-82
2020/12/18 08:35:22;;;;;;;10.80;5.70;;;6.20;99.90;;;;;;5095531;28;20383;-82
2020/12/18 08:37:49;;;;;;;8.02;4.38;;;6.30;99.90;;;;;;5077319;28;20024;-81
2020/12/18 08:40:24;;;;;;;7.05;4.30;;;6.40;99.90;;;;;;5095370;28;20027;-82
2020/12/18 08:43:02;;;;;;;5.68;4.55;;;6.60;99.90;;;;;;5076774;28;20134;-82
2020/12/18 08:45:29;;;;;;;5.97;4.38;;;6.50;99.90;;;;;;5095853;28;20099;-81
2020/12/18 08:47:55;;;;;;;6.80;3.90;;;6.50;99.90;;;;;;5076963;28;20031;-82
2020/12/18 08:50:22;;;;;;;6.70;4.13;;;6.60;99.90;;;;;;5095139;28;20024;-81
2020/12/18 08:52:48;;;;;;;7.60;4.95;;;6.80;99.90;;;;;;5076934;28;20383;-81
2020/12/18 08:55:15;;;;;;;9.50;5.45;;;6.90;99.90;;;;;;5076803;28;20024;-81
2020/12/18 08:57:41;;;;;;;6.85;5.18;;;6.90;99.90;;;;;;5094950;28;20020;-82
2020/12/18 09:00:15;;;;;;;9.80;5.50;;;6.90;99.90;;;;;;5076822;28;20562;-81
2020/12/18 09:03:01;;;;;;;9.38;5.82;;;6.80;99.90;;;;;;5094892;28;20035;-81
2020/12/18 09:05:35;;;;;;;9.98;6.07;;;6.70;99.90;;;;;;5076669;28;20479;-81
2020/12/18 09:08:05;;;;;;;7.47;5.20;;;6.80;99.90;;;;;;5076638;28;20492;-82
2020/12/18 09:10:33;;;;;;;9.75;6.32;;;6.80;99.90;;;;;;5076546;28;20020;-81
2020/12/18 09:13:14;;;;;;;9.68;5.82;;;6.80;99.90;;;;;;5095001;28;20016;-81
2020/12/18 09:15:44;;;;;;;10.25;5.90;;;6.90;99.90;;;;;;5076413;28;20066;-81
2020/12/18 09:18:12;;;;;;;7.45;5.28;;;7.00;99.90;;;;;;5095225;28;20024;-82
2020/12/18 09:20:43;;;;;;;9.85;5.75;;;7.10;99.90;;;;;;5094667;28;20040;-81
2020/12/18 09:23:16;;;;;;;9.25;5.90;;;7.30;99.90;;;;;;5076379;28;20097;-82
2020/12/18 09:25:49;;;;;;;9.27;4.90;;;7.50;99.90;;;;;;5094575;28;20021;-81
2020/12/18 09:28:20;;;;;;;8.68;5.70;;;7.70;99.90;;;;;;5076138;28;20283;-82
2020/12/18 09:30:51;;;;;;;10.20;5.82;;;7.80;99.90;;;;;;5094670;28;20470;-81
2020/12/18 09:33:25;;;;;;;9.93;6.28;;;8.10;99.90;;;;;;5076355;28;20073;-81
2020/12/18 09:36:00;;;;;;;10.80;5.35;;;8.30;99.90;;;;;;5094350;28;20026;-81
2020/12/18 09:38:31;;;;;;;7.22;5.30;;;8.50;99.90;;;;;;5076136;28;20031;-81
2020/12/18 09:40:59;;;;;;;9.00;4.72;;;8.70;99.90;;;;;;5094530;28;20371;-81
2020/12/18 09:43:25;;;;;;;8.32;4.63;;;8.90;99.90;;;;;;5094142;28;20031;-81
2020/12/18 09:45:51;;;;;;;7.85;4.55;;;8.80;99.90;;;;;;5076039;28;20482;-81
2020/12/18 09:48:18;;;;;;;7.82;4.82;;;8.70;99.90;;;;;;5075857;28;20028;-82
2020/12/18 09:50:44;;;;;;;7.78;5.55;;;8.70;99.90;;;;;;5094052;28;20020;-82
2020/12/18 09:53:10;;;;;;;10.45;6.32;;;8.80;99.90;;;;;;5092792;28;20407;-81
2020/12/18 09:55:36;;;;;;;14.77;6.05;;;8.90;99.90;;;;;;5075792;28;20028;-81
2020/12/18 09:58:03;;;;;;;10.75;6.57;;;9.20;99.90;;;;;;5093899;28;20423;-81
2020/12/18 10:00:29;;;;;;;13.50;6.13;;;9.30;99.90;;;;;;5093939;28;20456;-81
2020/12/18 10:02:57;;;;;;;8.07;4.88;;;9.20;99.90;;;;;;5093835;28;20023;-81
2020/12/18 10:05:23;;;;;;;9.60;5.85;;;9.30;99.90;;;;;;5093886;28;20017;-81
2020/12/18 10:07:49;;;;;;;8.45;5.15;;;9.30;99.90;;;;;;5093818;28;20024;-81
2020/12/18 10:10:15;;;;;;;8.77;5.10;;;9.40;99.90;;;;;;5075593;28;20020;-81
2020/12/18 10:12:40;;;;;;;8.52;5.20;;;9.70;99.90;;;;;;5093628;28;20027;-81
2020/12/18 10:15:06;;;;;;;10.73;5.45;;;9.80;99.90;;;;;;5075396;28;20427;-81
2020/12/18 10:17:32;;;;;;;9.30;5.15;;;9.80;99.90;;;;;;5075370;28;20040;-82
2020/12/18 10:19:58;;;;;;;9.68;5.93;;;9.90;99.90;;;;;;5093658;28;20024;-82
2020/12/18 10:22:23;;;;;;;10.50;5.85;;;9.70;99.90;;;;;;5093431;28;20411;-81
2020/12/18 10:24:49;;;;;;;9.48;5.28;;;9.50;99.90;;;;;;5075522;28;20027;-81
2020/12/18 10:27:15;;;;;;;10.30;5.68;;;9.30;99.90;;;;;;5094088;28;20030;-82
2020/12/18 10:29:42;;;;;;;10.18;5.47;;;9.10;99.90;;;;;;5075404;28;20055;-81
2020/12/18 10:32:08;;;;;;;7.15;5.13;;;9.00;99.90;;;;;;5093524;28;20039;-82
2020/12/18 10:34:34;;;;;;;7.35;5.13;;;9.10;99.90;;;;;;5093582;28;20016;-81
2020/12/18 10:37:00;;;;;;;10.13;5.88;;;9.00;99.90;;;;;;5075366;28;20027;-81
2020/12/18 10:39:25;;;;;;;16.67;6.97;;;9.00;99.90;;;;;;5075446;28;20028;-83
2020/12/18 10:41:52;;;;;;;16.23;6.65;;;9.00;99.90;;;;;;5075384;28;20057;-81
2020/12/18 10:44:19;;;;;;;12.70;6.65;;;9.30;99.90;;;;;;5093459;28;20021;-82
2020/12/18 10:46:48;;;;;;;11.75;6.35;;;9.50;99.90;;;;;;5093447;28;20053;-81
2020/12/18 10:49:15;;;;;;;11.43;6.25;;;9.70;99.90;;;;;;5075288;28;20024;-80
2020/12/18 10:51:42;;;;;;;13.95;6.28;;;9.90;99.90;;;;;;5093419;28;20020;-81
2020/12/18 10:54:08;;;;;;;12.90;7.07;;;10.20;99.90;;;;;;5075278;28;20397;-81
2020/12/18 10:56:40;;;;;;;13.70;6.25;;;10.30;99.90;;;;;;5075275;28;20047;-81
2020/12/18 10:59:06;;;;;;;10.63;5.88;;;10.60;99.90;;;;;;5075285;28;20035;-81
2020/12/18 11:01:32;;;;;;;10.98;6.22;;;10.80;99.90;;;;;;5093573;28;20374;-81
2020/12/18 11:03:57;;;;;;;10.75;5.38;;;11.00;99.90;;;;;;5093555;28;20031;-81
2020/12/18 11:06:23;;;;;;;6.82;5.05;;;11.40;99.90;;;;;;5078728;28;20059;-81
2020/12/18 11:08:49;;;;;;;10.77;5.13;;;11.50;99.90;;;;;;5097061;28;20027;-81
2020/12/18 11:11:15;;;;;;;10.48;5.72;;;11.60;99.90;;;;;;5078881;28;20025;-81
2020/12/18 11:13:41;;;;;;;7.22;4.40;;;11.70;99.90;;;;;;5097043;28;20021;-81
2020/12/18 11:16:07;;;;;;;7.25;5.00;;;11.60;99.90;;;;;;5096941;28;20027;-81
2020/12/18 11:18:34;;;;;;;7.22;4.60;;;11.80;99.90;;;;;;5096919;28;20024;-81
2020/12/18 11:21:04;;;;;;;6.88;4.20;;;12.10;99.90;;;;;;5096703;28;20079;-82
2020/12/18 11:23:32;;;;;;;7.18;4.30;;;12.20;99.90;;;;;;5097146;28;20536;-82
2020/12/18 11:25:57;;;;;;;11.15;3.97;;;12.30;99.90;;;;;;5096793;28;20126;-82
2020/12/18 11:28:24;;;;;;;7.70;4.00;;;12.20;99.90;;;;;;5078399;28;20123;-81
2020/12/18 11:30:50;;;;;;;8.38;3.80;;;12.40;99.90;;;;;;5078693;28;20055;-82
2020/12/18 11:33:15;;;;;;;10.02;3.97;;;12.50;99.90;;;;;;5096978;28;20490;-82
2020/12/18 11:35:41;;;;;;;9.25;3.63;;;12.30;99.90;;;;;;5078410;28;20117;-82
2020/12/18 11:38:07;;;;;;;5.40;3.53;;;12.60;99.90;;;;;;5096543;28;20032;-82
2020/12/18 11:40:33;;;;;;;5.97;3.60;;;12.90;99.90;;;;;;5078327;28;20026;-82
2020/12/18 11:42:59;;;;;;;5.88;3.70;;;12.90;99.90;;;;;;5096551;28;20501;-83
2020/12/18 11:45:25;;;;;;;9.27;3.72;;;13.00;99.90;;;;;;5096689;28;20024;-82
2020/12/18 11:47:51;;;;;;;6.40;3.55;;;13.20;99.90;;;;;;5096434;28;20024;-82
2020/12/18 11:50:17;;;;;;;5.35;3.35;;;13.40;99.90;;;;;;5096217;28;20045;-82
2020/12/18 11:52:43;;;;;;;6.40;3.58;;;13.30;99.90;;;;;;5078117;28;20398;-83
2020/12/18 11:55:08;;;;;;;5.32;3.78;;;13.50;99.90;;;;;;5096255;28;20091;-82
2020/12/18 11:57:34;;;;;;;5.30;3.38;;;13.80;99.90;;;;;;5096215;28;20024;-82
2020/12/18 12:00:00;;;;;;;6.35;3.38;;;13.90;99.90;;;;;;5096428;28;20047;-82
2020/12/18 12:02:25;;;;;;;6.70;3.72;;;13.90;99.90;;;;;;5096165;28;20024;-82
2020/12/18 12:04:51;;;;;;;6.32;3.50;;;13.70;99.90;;;;;;5077987;28;20509;-82
2020/12/18 12:07:17;;;;;;;8.68;3.67;;;13.40;99.90;;;;;;5077858;28;20023;-82
2020/12/18 12:09:43;;;;;;;6.38;3.30;;;14.00;99.90;;;;;;5077681;28;20074;-83
2020/12/18 12:12:12;;;;;;;8.95;3.63;;;14.60;99.90;;;;;;5077747;28;20024;-83
2020/12/18 12:14:38;;;;;;;5.60;3.33;;;15.00;99.90;;;;;;5061147;28;20068;-82
2020/12/18 12:17:04;;;;;;;4.20;3.03;;;15.20;99.90;;;;;;5095047;28;20095;-82
2020/12/18 12:19:30;;;;;;;5.97;3.30;;;15.60;99.90;;;;;;5096114;28;20020;-82
2020/12/18 12:21:56;;;;;;;8.93;3.67;;;15.30;99.90;;;;;;5074095;28;20048;-82
2020/12/18 12:24:22;;;;;;;5.25;3.28;;;14.90;99.90;;;;;;5075411;28;20468;-82
2020/12/18 12:26:49;;;;;;;7.35;3.38;;;14.90;99.90;;;;;;5075445;28;20035;-82
2020/12/18 12:29:14;;;;;;;5.43;3.78;;;15.30;99.90;;;;;;5074067;28;20024;-83
2020/12/18 12:31:40;;;;;;;7.65;3.50;;;15.80;99.90;;;;;;5075365;28;20082;-83
2020/12/18 12:34:06;;;;;;;4.53;3.33;;;16.20;99.90;;;;;;5074010;28;20430;-83
2020/12/18 12:36:32;;;;;;;4.60;3.17;;;16.70;99.90;;;;;;5073925;28;20048;-83
2020/12/18 12:38:58;;;;;;;6.68;3.00;;;16.20;99.90;;;;;;5074444;28;20024;-83
2020/12/18 12:41:24;;;;;;;5.78;3.15;;;15.60;99.90;;;;;;5073946;28;20111;-82
2020/12/18 12:43:50;;;;;;;5.45;3.15;;;15.90;99.90;;;;;;5073837;28;20383;-83
2020/12/18 12:46:16;;;;;;;7.40;3.03;;;16.10;99.90;;;;;;5075289;28;20032;-83
2020/12/18 12:48:42;;;;;;;6.97;3.15;;;16.00;99.90;;;;;;5073642;28;20071;-83
2020/12/18 12:51:08;;;;;;;5.65;3.13;;;16.30;99.90;;;;;;5075274;28;20017;-83
2020/12/18 12:53:34;;;;;;;6.20;3.22;;;16.10;99.90;;;;;;5073677;28;20027;-83